Time;durP1;ratioP1;P1;durP2;ratioP2;P2;SDS_P1;SDS_P2;PMS_P1;PMS_P2;Temp;Humidity;BMP_temperature;BMP_pressure;BME280_temperature;BME280_humidity;BME280_pressure;Samples;Min_cycle;Max_cycle;Signal;HPM_P1;HPM_P2
2023/02/22 00:00:44;;;;;;;1999.90;999.90;;;7.90;99.90;;;;;;5015661;28;20400;-67
2023/02/22 00:03:17;;;;;;;1999.90;999.90;;;8.00;99.90;;;;;;5016056;28;20916;-67
2023/02/22 00:05:45;;;;;;;1999.90;999.90;;;7.90;99.90;;;;;;5015586;28;21004;-67
2023/02/22 00:08:13;;;;;;;1999.90;999.90;;;8.00;99.90;;;;;;5015778;28;20415;-67
2023/02/22 00:10:38;;;;;;;1999.90;999.90;;;8.00;99.90;;;;;;5015747;28;20751;-67
2023/02/22 00:13:06;;;;;;;1999.90;999.90;;;8.00;99.90;;;;;;5015976;28;20414;-67
2023/02/22 00:15:32;;;;;;;1999.90;999.90;;;8.00;99.90;;;;;;5014371;28;20213;-67
2023/02/22 00:17:58;;;;;;;1999.90;999.90;;;8.00;99.90;;;;;;5015604;28;20494;-67
2023/02/22 00:20:24;;;;;;;1999.90;999.90;;;8.10;99.90;;;;;;5015592;28;20494;-67
2023/02/22 00:22:50;;;;;;;1999.90;999.90;;;8.10;99.90;;;;;;5015158;28;20170;-67
2023/02/22 00:25:23;;;;;;;1999.90;999.90;;;8.20;99.90;;;;;;5015122;28;20203;-67
2023/02/22 00:27:51;;;;;;;1999.90;999.90;;;8.20;99.90;;;;;;5015155;28;20757;-67
2023/02/22 00:30:26;;;;;;;1999.90;999.90;;;8.10;99.90;;;;;;5015162;28;20740;-67
2023/02/22 00:32:53;;;;;;;1999.90;999.90;;;8.00;99.90;;;;;;5015279;28;20869;-67
2023/02/22 00:35:21;;;;;;;1999.90;999.90;;;7.90;99.90;;;;;;5014919;28;20425;-67
2023/02/22 00:37:53;;;;;;;1999.90;999.90;;;7.70;99.90;;;;;;5015227;28;20506;-67
2023/02/22 00:40:22;;;;;;;1999.90;999.90;;;7.70;99.90;;;;;;5014975;28;20942;-67
2023/02/22 00:42:48;;;;;;;1999.90;999.90;;;7.80;99.90;;;;;;5014791;28;20497;-67
2023/02/22 00:45:22;;;;;;;1999.90;999.90;;;7.60;99.90;;;;;;5014692;28;21091;-68
2023/02/22 00:47:48;;;;;;;1999.90;999.90;;;7.60;99.90;;;;;;5015053;28;20388;-67
2023/02/22 00:50:15;;;;;;;1999.90;999.90;;;7.60;99.90;;;;;;5014620;28;20961;-67
2023/02/22 00:52:41;;;;;;;1999.90;999.90;;;7.60;99.90;;;;;;5014672;28;20408;-68
2023/02/22 00:55:10;;;;;;;1999.90;999.90;;;7.60;99.90;;;;;;5014575;28;20487;-68
2023/02/22 00:57:36;;;;;;;1999.90;999.90;;;7.50;99.90;;;;;;5014541;28;20408;-67
2023/02/22 01:00:16;;;;;;;1999.90;999.90;;;7.50;99.90;;;;;;5014588;28;20410;-67
2023/02/22 01:02:42;;;;;;;1999.90;999.90;;;7.50;99.90;;;;;;5014599;28;20384;-67
2023/02/22 01:05:11;;;;;;;1999.90;999.90;;;7.50;99.90;;;;;;5014402;28;20821;-67
2023/02/22 01:07:37;;;;;;;1999.90;999.90;;;7.50;99.90;;;;;;5014296;28;20458;-68
2023/02/22 01:10:04;;;;;;;1999.90;999.90;;;7.40;99.90;;;;;;5014354;28;20815;-68
2023/02/22 01:12:29;;;;;;;1999.90;999.90;;;7.40;99.90;;;;;;5014140;28;20559;-68
2023/02/22 01:14:55;;;;;;;1999.90;999.90;;;7.40;99.90;;;;;;5014153;28;20552;-68
2023/02/22 01:17:22;;;;;;;1999.90;999.90;;;7.40;99.90;;;;;;5014118;28;20193;-68
2023/02/22 01:19:48;;;;;;;1999.90;999.90;;;7.40;99.90;;;;;;5014195;28;20404;-68
2023/02/22 01:22:14;;;;;;;1999.90;999.90;;;7.40;99.90;;;;;;5013953;28;20886;-68
2023/02/22 01:24:39;;;;;;;1999.90;999.90;;;7.40;99.90;;;;;;5014040;28;20269;-68
2023/02/22 01:27:05;;;;;;;1999.90;999.90;;;7.40;99.90;;;;;;5014043;28;20191;-68
2023/02/22 01:29:30;;;;;;;1999.90;999.90;;;7.40;99.90;;;;;;5014031;28;20174;-68
2023/02/22 01:31:56;;;;;;;1999.90;999.90;;;7.50;99.90;;;;;;5013855;28;20640;-68
2023/02/22 01:34:23;;;;;;;1999.90;999.90;;;7.50;99.90;;;;;;5013894;28;20229;-68
2023/02/22 01:36:49;;;;;;;1999.90;999.90;;;7.30;99.90;;;;;;5013696;28;20428;-68
2023/02/22 01:39:16;;;;;;;1999.90;999.90;;;7.20;99.90;;;;;;5013802;28;20409;-68
2023/02/22 01:41:44;;;;;;;1999.90;999.90;;;7.10;99.90;;;;;;5013732;28;20524;-68
2023/02/22 01:44:26;;;;;;;1999.90;999.90;;;7.00;99.90;;;;;;5013626;28;20448;-68
2023/02/22 01:46:56;;;;;;;1999.90;999.90;;;6.80;99.90;;;;;;5013479;28;20937;-68
2023/02/22 01:49:25;;;;;;;1999.90;999.90;;;6.80;99.90;;;;;;5013579;28;20494;-68
2023/02/22 01:51:55;;;;;;;1999.90;999.90;;;6.70;99.90;;;;;;5013507;28;20894;-67
2023/02/22 01:54:27;;;;;;;1999.90;999.90;;;6.70;99.90;;;;;;5013709;28;20427;-67
2023/02/22 01:57:04;;;;;;;1999.90;999.90;;;6.60;99.90;;;;;;5013465;28;20514;-67
2023/02/22 01:59:34;;;;;;;1999.90;999.90;;;6.60;99.90;;;;;;5013634;28;20795;-67
2023/02/22 02:02:00;;;;;;;1999.90;999.90;;;6.60;99.90;;;;;;5012618;28;20503;-67
2023/02/22 02:04:27;;;;;;;1999.90;999.90;;;6.60;99.90;;;;;;5013404;28;20456;-67
2023/02/22 02:06:54;;;;;;;1999.90;999.90;;;6.60;99.90;;;;;;5013230;28;20431;-68
2023/02/22 02:09:40;;;;;;;1999.90;999.90;;;6.70;99.90;;;;;;5013246;28;20412;-68
2023/02/22 02:12:08;;;;;;;1999.90;999.90;;;6.70;99.90;;;;;;5012987;28;20404;-68
2023/02/22 02:14:39;;;;;;;1999.90;999.90;;;6.70;99.90;;;;;;5012966;28;20920;-68
2023/02/22 02:17:09;;;;;;;1999.90;999.90;;;6.70;99.90;;;;;;5013146;28;20432;-68
2023/02/22 02:19:53;;;;;;;1999.90;999.90;;;6.80;99.90;;;;;;5013100;28;20411;-68
2023/02/22 02:22:43;;;;;;;1999.90;999.90;;;6.80;99.90;;;;;;5012855;28;20423;-68
2023/02/22 02:25:12;;;;;;;1999.90;999.90;;;6.60;99.90;;;;;;5013048;28;20456;-68
2023/02/22 02:28:01;;;;;;;1999.90;999.90;;;6.60;99.90;;;;;;5012991;28;20442;-68
2023/02/22 02:30:39;;;;;;;1999.90;999.90;;;6.60;99.90;;;;;;5002639;28;20794;-68
2023/02/22 02:33:10;;;;;;;1999.90;999.90;;;6.60;99.90;;;;;;5012763;28;20921;-68
2023/02/22 02:35:53;;;;;;;1999.90;999.90;;;6.60;99.90;;;;;;5012696;28;20428;-68
2023/02/22 02:38:33;;;;;;;1999.90;999.90;;;6.60;99.90;;;;;;5012758;28;20487;-68
2023/02/22 02:41:05;;;;;;;1999.90;999.90;;;6.70;99.90;;;;;;5012543;28;20397;-68
2023/02/22 02:43:54;;;;;;;1999.90;999.90;;;6.70;99.90;;;;;;5012494;28;20443;-68
2023/02/22 02:46:25;;;;;;;1999.90;999.90;;;6.70;99.90;;;;;;5012518;28;20416;-68
2023/02/22 02:48:57;;;;;;;1999.90;999.90;;;6.60;99.90;;;;;;5012620;28;20406;-68
2023/02/22 02:51:29;;;;;;;1999.90;999.90;;;6.50;99.90;;;;;;5012372;28;20404;-68
2023/02/22 02:53:56;;;;;;;1999.90;999.90;;;6.60;99.90;;;;;;5012562;28;20404;-68
2023/02/22 02:56:22;;;;;;;1999.90;999.90;;;6.70;99.90;;;;;;5012457;28;20423;-68
2023/02/22 02:58:52;;;;;;;1999.90;999.90;;;6.90;99.90;;;;;;5012974;28;20508;-68
2023/02/22 03:02:04;;;;;;;1999.90;999.90;;;6.90;99.90;;;;;;5012187;28;20404;-68
2023/02/22 03:04:41;;;;;;;1999.90;999.90;;;6.90;99.90;;;;;;4951632;29;20459;-68
2023/02/22 03:07:28;;;;;;;1999.90;999.90;;;7.00;99.90;;;;;;5004205;28;20431;-68
2023/02/22 03:10:42;;;;;;;1999.90;999.90;;;6.90;99.90;;;;;;5012309;28;20462;-68
2023/02/22 03:13:22;;;;;;;1999.90;999.90;;;6.90;99.90;;;;;;4999310;28;20423;-67
2023/02/22 03:16:18;;;;;;;1999.90;999.90;;;6.90;99.90;;;;;;5011909;28;20513;-67
2023/02/22 03:19:04;;;;;;;1999.90;999.90;;;6.90;99.90;;;;;;5011260;28;20408;-67
2023/02/22 03:21:58;;;;;;;1999.90;999.90;;;6.90;99.90;;;;;;5012590;28;20388;-67
2023/02/22 03:24:27;;;;;;;1999.90;999.90;;;6.90;99.90;;;;;;5012409;28;20456;-67
2023/02/22 03:27:11;;;;;;;1999.90;999.90;;;6.90;99.90;;;;;;5012395;28;20941;-67
2023/02/22 03:29:43;;;;;;;1999.90;999.90;;;6.90;99.90;;;;;;5012452;28;20402;-67
2023/02/22 03:32:15;;;;;;;1999.90;999.90;;;6.80;99.90;;;;;;5012434;28;20506;-67
2023/02/22 03:34:51;;;;;;;1999.90;999.90;;;6.80;99.90;;;;;;5012490;28;20404;-67
2023/02/22 03:37:25;;;;;;;1999.90;999.90;;;6.70;99.90;;;;;;5012314;28;20431;-67
2023/02/22 03:39:54;;;;;;;1999.90;999.90;;;6.70;99.90;;;;;;5012152;28;20391;-67
2023/02/22 03:42:30;;;;;;;1999.90;999.90;;;6.60;99.90;;;;;;5011717;28;20450;-68
2023/02/22 03:44:59;;;;;;;1999.90;999.90;;;6.60;99.90;;;;;;5012018;28;20458;-68
2023/02/22 03:47:34;;;;;;;1999.90;999.90;;;6.40;99.90;;;;;;5011797;28;20419;-68
2023/02/22 03:50:09;;;;;;;1999.90;999.90;;;6.40;99.90;;;;;;5011917;28;20399;-68
2023/02/22 03:52:36;;;;;;;1999.90;999.90;;;6.40;99.90;;;;;;5011776;28;20402;-68
2023/02/22 03:55:03;;;;;;;1999.90;999.90;;;6.10;99.90;;;;;;5011894;28;20503;-68
2023/02/22 03:57:33;;;;;;;1999.90;999.90;;;6.20;99.90;;;;;;5011743;28;20420;-68
2023/02/22 03:59:59;;;;;;;1999.90;999.90;;;6.10;99.90;;;;;;5011890;28;20546;-67
2023/02/22 04:02:24;;;;;;;1999.90;999.90;;;6.00;99.90;;;;;;5011545;28;20531;-68
2023/02/22 04:04:50;;;;;;;1999.90;999.90;;;6.00;99.90;;;;;;5011737;28;20192;-68
2023/02/22 04:07:16;;;;;;;1999.90;999.90;;;5.90;99.90;;;;;;5011580;28;20182;-68
2023/02/22 04:09:42;;;;;;;1999.90;999.90;;;5.90;99.90;;;;;;5011777;28;20184;-68
2023/02/22 04:12:08;;;;;;;1999.90;999.90;;;5.80;99.90;;;;;;5011494;28;20412;-68
2023/02/22 04:14:34;;;;;;;1999.90;999.90;;;5.90;99.90;;;;;;5011570;28;20196;-68
2023/02/22 04:16:59;;;;;;;1999.90;999.90;;;6.00;99.90;;;;;;5011559;28;20436;-68
2023/02/22 04:19:25;;;;;;;1999.90;999.90;;;6.00;99.90;;;;;;5011615;28;20577;-67
2023/02/22 04:21:50;;;;;;;1999.90;999.90;;;6.00;99.90;;;;;;5011570;28;20173;-68
2023/02/22 04:24:16;;;;;;;1999.90;999.90;;;6.00;99.90;;;;;;5011507;28;20200;-67
2023/02/22 04:26:42;;;;;;;1999.90;999.90;;;6.10;99.90;;;;;;5014188;28;20189;-67
2023/02/22 04:29:07;;;;;;;1999.90;999.90;;;6.00;99.90;;;;;;5015355;28;20176;-67
2023/02/22 04:31:33;;;;;;;1999.90;999.90;;;5.90;99.90;;;;;;5015001;28;20252;-68
2023/02/22 04:33:59;;;;;;;1999.90;999.90;;;5.90;99.90;;;;;;5015042;28;20415;-68
2023/02/22 04:36:26;;;;;;;1999.90;999.90;;;5.90;99.90;;;;;;5014890;28;20507;-68
2023/02/22 04:38:52;;;;;;;1999.90;999.90;;;6.00;99.90;;;;;;5014986;28;20465;-68
2023/02/22 04:41:18;;;;;;;1999.90;999.90;;;6.00;99.90;;;;;;5014784;28;20436;-68
2023/02/22 04:43:44;;;;;;;1999.90;999.90;;;6.10;99.90;;;;;;5014852;28;20881;-67
2023/02/22 04:46:11;;;;;;;1999.90;999.90;;;6.10;99.90;;;;;;5014672;28;20526;-68
2023/02/22 04:48:37;;;;;;;1999.90;999.90;;;6.00;99.90;;;;;;5014807;28;20400;-67
2023/02/22 04:51:03;;;;;;;1999.90;999.90;;;6.00;99.90;;;;;;5014641;28;20404;-68
2023/02/22 04:53:28;;;;;;;1999.90;999.90;;;6.00;99.90;;;;;;5014798;28;20173;-68
2023/02/22 04:55:54;;;;;;;1999.90;999.90;;;6.00;99.90;;;;;;5014504;28;20424;-68
2023/02/22 04:58:19;;;;;;;1999.90;999.90;;;6.00;99.90;;;;;;5014674;28;20617;-68
2023/02/22 05:00:45;;;;;;;1999.90;999.90;;;6.00;99.90;;;;;;5014318;28;20300;-68
2023/02/22 05:03:10;;;;;;;1999.90;999.90;;;6.00;99.90;;;;;;5014535;28;20216;-68
2023/02/22 05:05:36;;;;;;;1999.90;999.90;;;6.00;99.90;;;;;;5014394;28;20201;-68
2023/02/22 05:08:02;;;;;;;1999.90;999.90;;;6.00;99.90;;;;;;5014443;28;20165;-68
2023/02/22 05:10:28;;;;;;;1999.90;999.90;;;6.00;99.90;;;;;;5014383;28;20171;-68
2023/02/22 05:12:54;;;;;;;1999.90;999.90;;;6.00;99.90;;;;;;5014291;28;20197;-68
2023/02/22 05:15:20;;;;;;;1999.90;999.90;;;5.90;99.90;;;;;;5014147;28;20475;-68
2023/02/22 05:17:46;;;;;;;1999.90;999.90;;;6.00;99.90;;;;;;5014114;28;20169;-68
2023/02/22 05:20:32;;;;;;;1999.90;999.90;;;5.90;99.90;;;;;;5014228;28;20502;-68
2023/02/22 05:23:00;;;;;;;1999.90;999.90;;;5.90;99.90;;;;;;5014161;28;20173;-68
2023/02/22 05:25:26;;;;;;;1999.90;999.90;;;5.80;99.90;;;;;;5013951;28;20463;-68
2023/02/22 05:27:54;;;;;;;1999.90;999.90;;;5.80;99.90;;;;;;5013986;28;20408;-68
2023/02/22 05:30:23;;;;;;;1999.90;999.90;;;5.70;99.90;;;;;;5013994;28;20400;-68
2023/02/22 05:32:49;;;;;;;1999.90;999.90;;;5.60;99.90;;;;;;5013953;28;20427;-68
2023/02/22 05:35:15;;;;;;;1999.90;999.90;;;5.70;99.90;;;;;;5013879;28;20414;-68
2023/02/22 05:37:41;;;;;;;1999.90;999.90;;;5.60;99.90;;;;;;5012836;28;20877;-68
2023/02/22 05:40:07;;;;;;;1999.90;999.90;;;5.50;99.90;;;;;;5013847;28;20538;-68
2023/02/22 05:42:33;;;;;;;1999.90;999.90;;;5.50;99.90;;;;;;5013518;28;20172;-68
2023/02/22 05:44:59;;;;;;;1999.90;999.90;;;5.30;99.90;;;;;;5013597;28;20467;-68
2023/02/22 05:47:25;;;;;;;1999.90;999.90;;;5.40;99.90;;;;;;5013632;28;20161;-68
2023/02/22 05:49:50;;;;;;;1999.90;999.90;;;5.40;99.90;;;;;;5013703;28;20829;-68
2023/02/22 05:52:16;;;;;;;1999.90;999.90;;;5.40;99.90;;;;;;5013445;28;20427;-68
2023/02/22 05:54:42;;;;;;;1999.90;999.90;;;5.50;99.90;;;;;;5013516;28;20183;-68
2023/02/22 05:57:08;;;;;;;1999.90;999.90;;;5.60;99.90;;;;;;5013371;28;20228;-68
2023/02/22 05:59:33;;;;;;;1999.90;999.90;;;5.50;99.90;;;;;;5013537;28;20231;-68
2023/02/22 06:01:59;;;;;;;1999.90;999.90;;;5.50;99.90;;;;;;5013474;28;20208;-68
2023/02/22 06:04:24;;;;;;;1999.90;999.90;;;5.50;99.90;;;;;;5013404;28;20201;-68
2023/02/22 06:06:50;;;;;;;1999.90;999.90;;;5.40;99.90;;;;;;5013303;28;20232;-68
2023/02/22 06:09:16;;;;;;;1999.90;999.90;;;5.30;99.90;;;;;;5013310;28;20200;-67
2023/02/22 06:11:41;;;;;;;1999.90;999.90;;;5.20;99.90;;;;;;5013060;28;20231;-68
2023/02/22 06:14:07;;;;;;;1999.90;999.90;;;5.10;99.90;;;;;;5012115;28;20611;-68
2023/02/22 06:16:32;;;;;;;1999.90;999.90;;;5.10;99.90;;;;;;5012926;28;20215;-67
2023/02/22 06:18:58;;;;;;;1999.90;999.90;;;5.00;99.90;;;;;;5013134;28;20192;-68
2023/02/22 06:21:24;;;;;;;1999.90;999.90;;;4.90;99.90;;;;;;5013033;28;20169;-68
2023/02/22 06:23:50;;;;;;;1999.90;999.90;;;4.90;99.90;;;;;;5012991;28;20447;-68
2023/02/22 06:26:18;;;;;;;1999.90;999.90;;;5.00;99.90;;;;;;5013130;28;20185;-68
2023/02/22 06:28:45;;;;;;;1999.90;999.90;;;4.90;99.90;;;;;;5012984;28;20168;-67
2023/02/22 06:31:11;;;;;;;1999.90;999.90;;;4.90;99.90;;;;;;5012882;28;20454;-67
2023/02/22 06:33:36;;;;;;;1999.90;999.90;;;4.80;99.90;;;;;;5012907;28;20404;-67
2023/02/22 06:36:02;;;;;;;1999.90;999.90;;;4.80;99.90;;;;;;5012799;28;20222;-68
2023/02/22 06:38:28;;;;;;;1999.90;999.90;;;4.70;99.90;;;;;;5012829;28;20180;-67
2023/02/22 06:40:54;;;;;;;1999.90;999.90;;;4.60;99.90;;;;;;5012970;28;20165;-67
2023/02/22 06:43:20;;;;;;;1999.90;999.90;;;4.60;99.90;;;;;;5012664;28;20531;-67
2023/02/22 06:45:46;;;;;;;1999.90;999.90;;;4.50;99.90;;;;;;5012576;28;20416;-67
2023/02/22 06:48:12;;;;;;;1999.90;999.90;;;4.50;99.90;;;;;;5012354;28;20459;-67
2023/02/22 06:50:38;;;;;;;1999.90;999.90;;;4.60;99.90;;;;;;5012564;28;20427;-67
2023/02/22 06:53:04;;;;;;;1999.90;999.90;;;4.60;99.90;;;;;;5012560;28;20400;-67
2023/02/22 06:55:32;;;;;;;1999.90;999.90;;;4.60;99.90;;;;;;5012678;28;20197;-67
2023/02/22 06:57:58;;;;;;;1999.90;999.90;;;4.60;99.90;;;;;;5012428;28;20400;-67
2023/02/22 07:00:25;;;;;;;1999.90;999.90;;;4.60;99.90;;;;;;5012604;28;20439;-68
2023/02/22 07:02:53;;;;;;;1999.90;999.90;;;4.70;99.90;;;;;;5012323;28;20462;-68
2023/02/22 07:05:21;;;;;;;1999.90;999.90;;;4.70;99.90;;;;;;5012229;28;20459;-68
2023/02/22 07:07:49;;;;;;;1999.90;999.90;;;4.70;99.90;;;;;;5012204;28;20490;-68
2023/02/22 07:10:18;;;;;;;1999.90;999.90;;;4.80;99.90;;;;;;5012357;28;20427;-67
2023/02/22 07:12:44;;;;;;;1999.90;999.90;;;4.90;99.90;;;;;;5012454;28;20821;-67
2023/02/22 07:15:09;;;;;;;1999.90;999.90;;;5.00;99.90;;;;;;5012120;28;20570;-67
2023/02/22 07:17:35;;;;;;;1999.90;999.90;;;5.00;99.90;;;;;;5012264;28;20175;-67
2023/02/22 07:20:01;;;;;;;1999.90;999.90;;;5.10;99.90;;;;;;5012270;28;20168;-67
2023/02/22 07:22:26;;;;;;;1999.90;999.90;;;5.30;99.90;;;;;;5012079;28;20176;-67
2023/02/22 07:24:52;;;;;;;1999.90;999.90;;;5.30;99.90;;;;;;5012116;28;20204;-67
2023/02/22 07:27:17;;;;;;;1999.90;999.90;;;5.30;99.90;;;;;;5012141;28;20663;-67
2023/02/22 07:29:43;;;;;;;1999.90;999.90;;;5.30;99.90;;;;;;5012423;28;20183;-67
2023/02/22 07:32:09;;;;;;;1999.90;999.90;;;5.50;99.90;;;;;;5007995;28;20170;-67
2023/02/22 07:34:36;;;;;;;1999.90;999.90;;;5.60;99.90;;;;;;4996635;28;20409;-67
2023/02/22 07:37:01;;;;;;;1999.90;999.90;;;5.70;99.90;;;;;;4997054;28;20425;-67
2023/02/22 07:39:27;;;;;;;1999.90;999.90;;;5.80;99.90;;;;;;4997632;28;20551;-67
2023/02/22 07:41:52;;;;;;;1999.90;999.90;;;5.90;99.90;;;;;;4997453;28;20257;-67
2023/02/22 07:44:18;;;;;;;1999.90;999.90;;;5.90;99.90;;;;;;4997400;28;20196;-67
2023/02/22 07:46:47;;;;;;;1999.90;999.90;;;6.00;99.90;;;;;;4996845;28;20189;-67
2023/02/22 07:49:13;;;;;;;1999.90;999.90;;;6.10;99.90;;;;;;4997215;28;20170;-67
2023/02/22 07:51:39;;;;;;;1999.90;999.90;;;6.30;99.90;;;;;;4997168;28;20746;-67
2023/02/22 07:54:04;;;;;;;1999.90;999.90;;;6.40;99.90;;;;;;4997449;28;20416;-67
2023/02/22 07:56:30;;;;;;;1999.90;999.90;;;6.40;99.90;;;;;;4997132;28;20616;-66
2023/02/22 07:58:56;;;;;;;1999.90;999.90;;;6.50;99.90;;;;;;4996667;28;20416;-67
2023/02/22 08:01:22;;;;;;;1999.90;999.90;;;6.50;99.90;;;;;;4999337;28;20174;-67
2023/02/22 08:03:47;;;;;;;1999.90;999.90;;;6.60;99.90;;;;;;5000684;28;20221;-67
2023/02/22 08:06:13;;;;;;;1999.90;999.90;;;6.60;99.90;;;;;;4996184;28;20432;-67
2023/02/22 08:08:39;;;;;;;1999.90;999.90;;;6.70;99.90;;;;;;4996044;28;20224;-67
2023/02/22 08:11:04;;;;;;;1999.90;999.90;;;6.70;99.90;;;;;;4996072;28;20177;-67
2023/02/22 08:13:30;;;;;;;1999.90;999.90;;;6.70;99.90;;;;;;4995938;28;20432;-67
2023/02/22 08:15:56;;;;;;;1999.90;999.90;;;6.70;99.90;;;;;;4995700;28;20244;-67
2023/02/22 08:18:23;;;;;;;1999.90;999.90;;;6.70;99.90;;;;;;4996958;28;20624;-67
2023/02/22 08:20:50;;;;;;;1999.90;999.90;;;6.80;99.90;;;;;;4999371;28;20644;-67
2023/02/22 08:23:17;;;;;;;1999.90;999.90;;;6.80;99.90;;;;;;5000381;28;20468;-67
2023/02/22 08:25:43;;;;;;;1999.90;999.90;;;6.90;99.90;;;;;;4999925;28;20496;-67
2023/02/22 08:28:15;;;;;;;1999.90;999.90;;;7.00;99.90;;;;;;5000251;28;20420;-67
2023/02/22 08:30:43;;;;;;;1999.90;999.90;;;7.10;99.90;;;;;;4996959;28;20239;-67
2023/02/22 08:33:13;;;;;;;1999.90;999.90;;;7.20;99.90;;;;;;5000512;28;20997;-67
2023/02/22 08:35:39;;;;;;;1999.90;999.90;;;7.20;99.90;;;;;;5000417;28;20449;-67
2023/02/22 08:38:06;;;;;;;1999.90;999.90;;;7.30;99.90;;;;;;5000218;28;20413;-67
2023/02/22 08:40:34;;;;;;;1999.90;999.90;;;7.40;99.90;;;;;;5000416;28;20837;-67
2023/02/22 08:43:00;;;;;;;1999.90;999.90;;;7.40;99.90;;;;;;4999552;28;20416;-67
2023/02/22 08:45:26;;;;;;;1999.90;999.90;;;7.60;99.90;;;;;;5000015;28;20452;-67
2023/02/22 08:47:51;;;;;;;1999.90;999.90;;;7.60;99.90;;;;;;4999855;28;20405;-68
2023/02/22 08:50:29;;;;;;;1999.90;999.90;;;7.60;99.90;;;;;;4999577;28;20252;-68
2023/02/22 08:53:00;;;;;;;1999.90;999.90;;;7.70;99.90;;;;;;4999892;28;20551;-67
2023/02/22 08:55:29;;;;;;;1999.90;999.90;;;7.70;99.90;;;;;;5000567;28;20516;-67
2023/02/22 08:57:54;;;;;;;1999.90;999.90;;;7.70;99.90;;;;;;4999292;28;20421;-67
2023/02/22 09:00:24;;;;;;;1999.90;999.90;;;7.80;99.90;;;;;;4997008;28;20401;-68
2023/02/22 09:02:50;;;;;;;1999.90;999.90;;;7.90;99.90;;;;;;4994776;28;20974;-68
2023/02/22 09:05:16;;;;;;;1999.90;999.90;;;8.10;99.90;;;;;;4994931;28;20831;-68
2023/02/22 09:07:42;;;;;;;1999.90;999.90;;;8.10;99.90;;;;;;4994841;28;20407;-68
2023/02/22 09:10:14;;;;;;;1999.90;999.90;;;8.10;99.90;;;;;;4994818;28;20182;-68
2023/02/22 09:12:40;;;;;;;1999.90;999.90;;;8.30;99.90;;;;;;4994597;28;20397;-68
2023/02/22 09:15:06;;;;;;;1999.90;999.90;;;8.30;99.90;;;;;;4994514;28;20430;-68
2023/02/22 09:17:32;;;;;;;1999.90;999.90;;;8.50;99.90;;;;;;4994651;28;20399;-68
2023/02/22 09:19:57;;;;;;;1999.90;999.90;;;8.70;99.90;;;;;;4994707;28;20421;-68
2023/02/22 09:22:23;;;;;;;1999.90;999.90;;;8.80;99.90;;;;;;4994453;28;20180;-68
2023/02/22 09:24:50;;;;;;;1999.90;999.90;;;9.00;99.90;;;;;;4994524;28;20202;-68
2023/02/22 09:27:18;;;;;;;1999.90;999.90;;;9.10;99.90;;;;;;4994486;28;20195;-68
2023/02/22 09:29:47;;;;;;;1999.90;999.90;;;9.20;99.90;;;;;;4994398;28;20415;-68
2023/02/22 09:32:13;;;;;;;1999.90;999.90;;;9.20;99.90;;;;;;4994440;28;20443;-68
2023/02/22 09:34:44;;;;;;;1999.90;999.90;;;9.40;99.90;;;;;;4994341;28;20785;-68
2023/02/22 09:37:13;;;;;;;1999.90;999.90;;;9.50;99.90;;;;;;4997057;28;20747;-67
2023/02/22 09:39:38;;;;;;;1999.90;999.90;;;9.50;99.90;;;;;;4995100;28;20414;-67
2023/02/22 09:42:22;;;;;;;1999.90;999.90;;;9.70;99.90;;;;;;4997011;28;20211;-67
2023/02/22 09:44:54;;;;;;;1999.90;999.90;;;9.80;99.90;;;;;;4994620;28;20748;-67
2023/02/22 09:47:41;;;;;;;1999.90;999.90;;;9.70;99.90;;;;;;4992927;28;20515;-67
2023/02/22 09:50:16;;;;;;;1999.90;999.90;;;9.70;99.90;;;;;;4994202;28;20430;-67
2023/02/22 09:53:04;;;;;;;1999.90;999.90;;;9.80;99.90;;;;;;4994084;28;20384;-67
2023/02/22 09:55:40;;;;;;;1999.90;999.90;;;9.90;99.90;;;;;;4994355;28;20432;-67
2023/02/22 09:58:32;;;;;;;1999.90;999.90;;;10.00;99.90;;;;;;4994192;28;20481;-67
2023/02/22 10:01:21;;;;;;;1999.90;999.90;;;10.20;99.90;;;;;;4991968;28;20404;-68
2023/02/22 10:04:00;;;;;;;1999.90;999.90;;;10.30;99.90;;;;;;4993366;28;20460;-68
2023/02/22 10:06:26;;;;;;;1999.90;999.90;;;10.50;99.90;;;;;;4992992;28;20478;-68
2023/02/22 10:08:57;;;;;;;1999.90;999.90;;;10.70;99.90;;;;;;4992964;28;20413;-68
2023/02/22 10:11:34;;;;;;;1999.90;999.90;;;10.80;99.90;;;;;;4993109;28;20497;-68
2023/02/22 10:14:18;;;;;;;1999.90;999.90;;;10.90;99.90;;;;;;4993407;28;20401;-68
2023/02/22 10:16:55;;;;;;;1999.90;999.90;;;11.20;99.90;;;;;;4992760;28;20455;-68
2023/02/22 10:19:56;;;;;;;1999.90;999.90;;;11.40;99.90;;;;;;4996363;28;21029;-67
2023/02/22 10:22:36;;;;;;;1999.90;999.90;;;11.60;99.90;;;;;;4996484;28;20399;-67
2023/02/22 10:25:12;;;;;;;1999.90;999.90;;;11.80;99.90;;;;;;4995905;28;20460;-67
2023/02/22 10:28:06;;;;;;;1999.90;999.90;;;12.00;99.90;;;;;;4996204;28;20400;-67
2023/02/22 10:30:38;;;;;;;1999.90;999.90;;;12.30;99.90;;;;;;4990316;28;20425;-67
2023/02/22 10:33:19;;;;;;;1999.90;999.90;;;12.50;99.90;;;;;;4995227;28;20401;-68
2023/02/22 10:35:46;;;;;;;1999.90;999.90;;;12.60;99.90;;;;;;4993965;28;20988;-67
2023/02/22 10:38:15;;;;;;;1999.90;999.90;;;12.80;99.90;;;;;;4993055;28;20794;-67
2023/02/22 10:40:46;;;;;;;1999.90;999.90;;;13.00;99.90;;;;;;4993446;28;20532;-67
2023/02/22 10:43:12;;;;;;;1999.90;999.90;;;13.20;99.90;;;;;;4993522;28;20442;-67
2023/02/22 10:45:38;;;;;;;1999.90;999.90;;;13.40;99.90;;;;;;4992925;28;20462;-67
2023/02/22 10:48:11;;;;;;;1999.90;999.90;;;13.50;99.90;;;;;;4993435;28;20430;-67
2023/02/22 10:50:40;;;;;;;1999.90;999.90;;;13.60;99.90;;;;;;4993186;28;20407;-67
2023/02/22 10:53:07;;;;;;;1999.90;999.90;;;13.80;99.90;;;;;;4992088;28;20439;-68
2023/02/22 10:55:32;;;;;;;1999.90;999.90;;;14.00;99.90;;;;;;4991297;28;20936;-68
2023/02/22 10:58:03;;;;;;;1999.90;999.90;;;13.90;99.90;;;;;;4992481;28;20475;-68
2023/02/22 11:00:38;;;;;;;1999.90;999.90;;;14.00;99.90;;;;;;4992248;28;20182;-68
2023/02/22 11:03:17;;;;;;;1999.90;999.90;;;14.10;99.90;;;;;;4992432;28;20409;-68
2023/02/22 11:05:43;;;;;;;1999.90;999.90;;;14.20;99.90;;;;;;4992568;28;20460;-68
2023/02/22 11:08:23;;;;;;;1999.90;999.90;;;14.40;99.90;;;;;;4991954;28;20402;-68
2023/02/22 11:11:01;;;;;;;1999.90;999.90;;;14.50;99.90;;;;;;4992332;28;20434;-68
2023/02/22 11:13:37;;;;;;;1999.90;999.90;;;14.60;99.90;;;;;;4992445;28;20393;-68
2023/02/22 11:16:35;;;;;;;1999.90;999.90;;;14.70;99.90;;;;;;4991530;28;20525;-68
2023/02/22 11:19:07;;;;;;;1999.90;999.90;;;14.80;99.90;;;;;;4992291;28;20895;-68
2023/02/22 11:21:33;;;;;;;1999.90;999.90;;;15.00;99.90;;;;;;4992156;28;20494;-68
2023/02/22 11:24:08;;;;;;;1999.90;999.90;;;15.10;99.90;;;;;;4991678;28;20537;-68
2023/02/22 11:26:47;;;;;;;1999.90;999.90;;;15.30;99.90;;;;;;4993304;28;20187;-67
2023/02/22 11:29:32;;;;;;;1999.90;999.90;;;15.60;99.90;;;;;;4994742;28;20569;-68
2023/02/22 11:32:03;;;;;;;1999.90;999.90;;;15.80;99.90;;;;;;4993523;28;20414;-68
2023/02/22 11:34:36;;;;;;;1999.90;999.90;;;15.90;99.90;;;;;;4993568;28;20907;-68
2023/02/22 11:37:37;;;;;;;1999.90;999.90;;;16.10;99.90;;;;;;4997614;28;20435;-67
2023/02/22 11:40:18;;;;;;;1999.90;999.90;;;16.10;99.90;;;;;;4976804;28;20420;-68
2023/02/22 11:42:45;;;;;;;1999.90;999.90;;;16.20;99.90;;;;;;4998314;28;20409;-68
2023/02/22 11:45:13;;;;;;;1999.90;999.90;;;16.30;99.90;;;;;;4998051;28;20454;-67
2023/02/22 11:47:51;;;;;;;1999.90;999.90;;;16.50;99.90;;;;;;4995621;28;20420;-68
2023/02/22 11:50:32;;;;;;;1999.90;999.90;;;17.00;99.90;;;;;;4996986;28;20407;-68
2023/02/22 11:53:27;;;;;;;1999.90;999.90;;;17.40;99.90;;;;;;4998721;28;20451;-68
2023/02/22 11:56:14;;;;;;;1999.90;999.90;;;17.50;99.90;;;;;;4998902;28;20490;-67
2023/02/22 11:58:46;;;;;;;1999.90;999.90;;;17.60;99.90;;;;;;4999802;28;20492;-67
2023/02/22 12:01:30;;;;;;;1999.90;999.90;;;17.70;99.90;;;;;;5000677;28;20545;-67
2023/02/22 12:04:07;;;;;;;1999.90;999.90;;;18.20;99.90;;;;;;5001555;28;20441;-67
2023/02/22 12:06:34;;;;;;;1999.90;999.90;;;18.50;99.90;;;;;;5001479;28;20429;-68
2023/02/22 12:09:06;;;;;;;1999.90;999.90;;;19.00;99.90;;;;;;5001991;28;20417;-67
2023/02/22 12:11:42;;;;;;;1999.90;999.90;;;19.10;99.90;;;;;;5002881;28;20410;-67
2023/02/22 12:14:24;;;;;;;1999.90;999.90;;;19.30;99.90;;;;;;5001093;28;20414;-67
2023/02/22 12:17:09;;;;;;;1999.90;999.90;;;19.50;99.90;;;;;;5000429;28;21009;-68
2023/02/22 12:19:48;;;;;;;1999.90;999.90;;;19.70;99.90;;;;;;5000434;28;20442;-68
2023/02/22 12:22:28;;;;;;;1999.90;999.90;;;19.80;99.90;;;;;;5002036;28;20439;-67